SCX1968 KBWI-KMSP
Flight info
| Callsign | SCX1968 |
|---|---|
| Flight time | N/A |
| Altitude | 34000 |
| Route | LINSE2 MCRAY Q178 DJB J34 VIO KAMMA KKILR4 |
| Aircraft | B738/M-SDE2E3FGHIRWXY/LB1 |
Departure
| Time | N/A |
|---|---|
| Airport | Baltimore/Washington International Thurgood Marshall Airport (KBWI) |
Arrival
| Time | 2026-05-08 06:00 |
|---|---|
| Airport | Minneapolis–Saint Paul International Airport / Wold–Chamberlain Field (KMSP) |
| Time | Latitude | Longitude | Altitude | Speed | Heading |
|---|---|---|---|---|---|
| 2026-05-08 03:45 | 39.39562 | -77.42564 | 23434 ft | 308 kts | 287° |
| 2026-05-08 03:45 | 39.40395 | -77.45086 | 23986 ft | 307 kts | 287° |
| 2026-05-08 03:46 | 39.41231 | -77.47619 | 24412 ft | 309 kts | 287° |
| 2026-05-08 03:46 | 39.42077 | -77.50185 | 24859 ft | 311 kts | 287° |
| 2026-05-08 03:46 | 39.42921 | -77.52747 | 25338 ft | 311 kts | 287° |
| 2026-05-08 03:46 | 39.43766 | -77.55313 | 25811 ft | 312 kts | 287° |
| 2026-05-08 03:47 | 39.44614 | -77.57890 | 26185 ft | 314 kts | 287° |
| 2026-05-08 03:47 | 39.45466 | -77.60484 | 26594 ft | 316 kts | 287° |
| 2026-05-08 03:47 | 39.46322 | -77.63091 | 27008 ft | 317 kts | 287° |
| 2026-05-08 03:47 | 39.47189 | -77.65733 | 27396 ft | 318 kts | 287° |
| 2026-05-08 03:48 | 39.48049 | -77.68356 | 27848 ft | 319 kts | 286° |
| 2026-05-08 03:48 | 39.48911 | -77.70988 | 28240 ft | 320 kts | 287° |
| 2026-05-08 03:48 | 39.49782 | -77.73641 | 28638 ft | 322 kts | 287° |
| 2026-05-08 03:48 | 39.50700 | -77.76285 | 28968 ft | 325 kts | 288° |
| 2026-05-08 03:49 | 39.51698 | -77.78926 | 29327 ft | 328 kts | 290° |
| 2026-05-08 03:49 | 39.52753 | -77.81551 | 29706 ft | 330 kts | 290° |
| 2026-05-08 03:49 | 39.53835 | -77.84178 | 30041 ft | 332 kts | 291° |
| 2026-05-08 03:49 | 39.54922 | -77.86813 | 30359 ft | 333 kts | 291° |
| 2026-05-08 03:50 | 39.56012 | -77.89459 | 30658 ft | 334 kts | 291° |
| 2026-05-08 03:50 | 39.57102 | -77.92116 | 30906 ft | 337 kts | 290° |
| 2026-05-08 03:50 | 39.57721 | -77.93632 | 31055 ft | 338 kts | 291° |
| 2026-05-08 03:50 | 39.58676 | -77.95972 | 31352 ft | 338 kts | 291° |
| 2026-05-08 03:51 | 39.59771 | -77.98665 | 31579 ft | 341 kts | 290° |
| 2026-05-08 03:51 | 39.60876 | -78.01385 | 31832 ft | 342 kts | 291° |
| 2026-05-08 03:51 | 39.61982 | -78.04107 | 32094 ft | 344 kts | 291° |
| 2026-05-08 03:51 | 39.63096 | -78.06853 | 32315 ft | 346 kts | 291° |
| 2026-05-08 03:52 | 39.64217 | -78.09616 | 32564 ft | 348 kts | 291° |
| 2026-05-08 03:52 | 39.65347 | -78.12408 | 32786 ft | 350 kts | 291° |
| 2026-05-08 03:52 | 39.66487 | -78.15221 | 33027 ft | 351 kts | 291° |
| 2026-05-08 03:52 | 39.67627 | -78.18040 | 33210 ft | 354 kts | 291° |
| 2026-05-08 03:53 | 39.68753 | -78.20830 | 33460 ft | 354 kts | 291° |
| 2026-05-08 03:53 | 39.69897 | -78.23663 | 33648 ft | 357 kts | 291° |
| 2026-05-08 03:53 | 39.71062 | -78.26556 | 33777 ft | 360 kts | 292° |
| 2026-05-08 03:53 | 39.72150 | -78.29258 | 33947 ft | 361 kts | 291° |
| 2026-05-08 03:54 | 39.73325 | -78.32177 | 33984 ft | 363 kts | 291° |
| 2026-05-08 03:54 | 39.75639 | -78.37929 | 33980 ft | 359 kts | 291° |
| 2026-05-08 03:55 | 39.77953 | -78.43697 | 33989 ft | 363 kts | 292° |
| 2026-05-08 03:55 | 39.80051 | -78.48933 | 33981 ft | 361 kts | 292° |
| 2026-05-08 03:56 | 39.82362 | -78.54716 | 33984 ft | 362 kts | 292° |
| 2026-05-08 03:56 | 39.84676 | -78.60519 | 33990 ft | 361 kts | 291° |
| 2026-05-08 03:57 | 39.86987 | -78.66328 | 33982 ft | 363 kts | 291° |
| 2026-05-08 03:57 | 39.89295 | -78.72137 | 33992 ft | 362 kts | 291° |
| 2026-05-08 03:58 | 39.91604 | -78.77963 | 33990 ft | 363 kts | 291° |
| 2026-05-08 03:58 | 39.93920 | -78.83819 | 33983 ft | 365 kts | 291° |
| 2026-05-08 03:59 | 39.96223 | -78.89650 | 33976 ft | 365 kts | 292° |
| 2026-05-08 03:59 | 39.98559 | -78.95573 | 33974 ft | 366 kts | 292° |
| 2026-05-08 04:00 | 39.99403 | -78.97715 | 33977 ft | 365 kts | 292° |
| 2026-05-08 04:00 | 40.00978 | -79.01716 | 33976 ft | 366 kts | 292° |
| 2026-05-08 04:01 | 40.03306 | -79.07645 | 33983 ft | 365 kts | 292° |
| 2026-05-08 04:01 | 40.05396 | -79.12974 | 33982 ft | 365 kts | 292° |
| 2026-05-08 04:02 | 40.07681 | -79.18816 | 33986 ft | 364 kts | 292° |
| 2026-05-08 04:02 | 40.09976 | -79.24695 | 33994 ft | 363 kts | 292° |
| 2026-05-08 04:03 | 40.12267 | -79.30577 | 34003 ft | 363 kts | 292° |
| 2026-05-08 04:03 | 40.15470 | -79.38819 | 34007 ft | 361 kts | 292° |
| 2026-05-08 04:04 | 40.17352 | -79.43668 | 34006 ft | 361 kts | 292° |
| 2026-05-08 04:04 | 40.19617 | -79.49519 | 34005 ft | 362 kts | 292° |
| 2026-05-08 04:05 | 40.21878 | -79.55364 | 34007 ft | 360 kts | 292° |
| 2026-05-08 04:05 | 40.24135 | -79.61215 | 34009 ft | 361 kts | 292° |
| 2026-05-08 04:06 | 40.26378 | -79.67040 | 34008 ft | 358 kts | 291° |
| 2026-05-08 04:06 | 40.28601 | -79.72826 | 34005 ft | 356 kts | 291° |
| 2026-05-08 04:07 | 40.30803 | -79.78576 | 34007 ft | 355 kts | 291° |
| 2026-05-08 04:07 | 40.33027 | -79.84392 | 34015 ft | 357 kts | 292° |
| 2026-05-08 04:08 | 40.35237 | -79.90171 | 34012 ft | 355 kts | 291° |
| 2026-05-08 04:08 | 40.37448 | -79.95972 | 34010 ft | 354 kts | 291° |
| 2026-05-08 04:09 | 40.39626 | -80.01704 | 34010 ft | 355 kts | 291° |
| 2026-05-08 04:09 | 40.41714 | -80.07213 | 34012 ft | 356 kts | 292° |
| 2026-05-08 04:10 | 40.43846 | -80.12832 | 34002 ft | 353 kts | 291° |
| 2026-05-08 04:10 | 40.46039 | -80.18632 | 34019 ft | 356 kts | 292° |
| 2026-05-08 04:11 | 40.48232 | -80.24436 | 34012 ft | 355 kts | 291° |
| 2026-05-08 04:11 | 40.50412 | -80.30225 | 34010 ft | 353 kts | 292° |
| 2026-05-08 04:12 | 40.52581 | -80.35989 | 34014 ft | 355 kts | 291° |
| 2026-05-08 04:12 | 40.54704 | -80.41649 | 34015 ft | 353 kts | 292° |
| 2026-05-08 04:13 | 40.56874 | -80.47440 | 34009 ft | 354 kts | 292° |
| 2026-05-08 04:13 | 40.59033 | -80.53219 | 34003 ft | 354 kts | 291° |
| 2026-05-08 04:14 | 40.61204 | -80.59038 | 34007 ft | 354 kts | 292° |
| 2026-05-08 04:14 | 40.63365 | -80.64841 | 34003 ft | 353 kts | 292° |
| 2026-05-08 04:15 | 40.65521 | -80.70642 | 33996 ft | 352 kts | 291° |
| 2026-05-08 04:15 | 40.67664 | -80.76422 | 34000 ft | 353 kts | 291° |
| 2026-05-08 04:16 | 40.69811 | -80.82219 | 33996 ft | 352 kts | 291° |
| 2026-05-08 04:16 | 40.71949 | -80.88009 | 33997 ft | 353 kts | 291° |
| 2026-05-08 04:17 | 40.74073 | -80.93775 | 33994 ft | 352 kts | 291° |
| 2026-05-08 04:17 | 40.76211 | -80.99587 | 34001 ft | 352 kts | 291° |
| 2026-05-08 04:18 | 40.78342 | -81.05389 | 33999 ft | 353 kts | 291° |
| 2026-05-08 04:18 | 40.80473 | -81.11207 | 33998 ft | 353 kts | 291° |
| 2026-05-08 04:19 | 40.82606 | -81.17045 | 33996 ft | 353 kts | 291° |
| 2026-05-08 04:19 | 40.84729 | -81.22859 | 33998 ft | 354 kts | 291° |
| 2026-05-08 04:20 | 40.86850 | -81.28681 | 33995 ft | 352 kts | 291° |
| 2026-05-08 04:20 | 40.88975 | -81.34528 | 33999 ft | 356 kts | 291° |
| 2026-05-08 04:21 | 40.91114 | -81.40420 | 34000 ft | 354 kts | 291° |
| 2026-05-08 04:21 | 40.93227 | -81.46259 | 33996 ft | 355 kts | 291° |
| 2026-05-08 04:22 | 40.95350 | -81.52136 | 33982 ft | 356 kts | 291° |
| 2026-05-08 04:22 | 40.97472 | -81.58026 | 33975 ft | 356 kts | 291° |
| 2026-05-08 04:23 | 40.99602 | -81.63941 | 33984 ft | 357 kts | 291° |
| 2026-05-08 04:23 | 41.01731 | -81.69866 | 33981 ft | 356 kts | 291° |
| 2026-05-08 04:24 | 41.03848 | -81.75774 | 33981 ft | 357 kts | 291° |
| 2026-05-08 04:24 | 41.05967 | -81.81700 | 33974 ft | 358 kts | 291° |
| 2026-05-08 04:25 | 41.08095 | -81.87666 | 33971 ft | 360 kts | 291° |
| 2026-05-08 04:25 | 41.10227 | -81.93655 | 33972 ft | 359 kts | 291° |
| 2026-05-08 04:26 | 41.12354 | -81.99643 | 33980 ft | 359 kts | 291° |
| 2026-05-08 04:26 | 41.14463 | -82.05595 | 33966 ft | 358 kts | 291° |
| 2026-05-08 04:27 | 41.16595 | -82.11623 | 33964 ft | 362 kts | 291° |
| 2026-05-08 04:27 | 41.18727 | -82.17655 | 33974 ft | 362 kts | 291° |
| 2026-05-08 04:28 | 41.20857 | -82.23700 | 33967 ft | 362 kts | 291° |
| 2026-05-08 04:28 | 41.22979 | -82.29738 | 33976 ft | 362 kts | 291° |
| 2026-05-08 04:29 | 41.25102 | -82.35789 | 33971 ft | 363 kts | 291° |
| 2026-05-08 04:29 | 41.27231 | -82.41869 | 33951 ft | 363 kts | 291° |
| 2026-05-08 04:30 | 41.29356 | -82.47948 | 33959 ft | 363 kts | 292° |
| 2026-05-08 04:30 | 41.31473 | -82.54015 | 33949 ft | 363 kts | 291° |
| 2026-05-08 04:31 | 41.33577 | -82.60071 | 33955 ft | 363 kts | 292° |
| 2026-05-08 04:31 | 41.35681 | -82.66133 | 33950 ft | 362 kts | 291° |
| 2026-05-08 04:32 | 41.37790 | -82.72220 | 33947 ft | 361 kts | 291° |
| 2026-05-08 04:32 | 41.39883 | -82.78282 | 33955 ft | 364 kts | 291° |
| 2026-05-08 04:33 | 41.41995 | -82.84405 | 33953 ft | 363 kts | 291° |
| 2026-05-08 04:33 | 41.44090 | -82.90499 | 33958 ft | 365 kts | 292° |
| 2026-05-08 04:34 | 41.46183 | -82.96596 | 33960 ft | 363 kts | 291° |
| 2026-05-08 04:34 | 41.48280 | -83.02715 | 33953 ft | 363 kts | 291° |
| 2026-05-08 04:35 | 41.50379 | -83.08861 | 33948 ft | 365 kts | 291° |
| 2026-05-08 04:35 | 41.52475 | -83.15003 | 33949 ft | 363 kts | 292° |
| 2026-05-08 04:36 | 41.54561 | -83.21133 | 33951 ft | 365 kts | 291° |
| 2026-05-08 04:36 | 41.56652 | -83.27289 | 33956 ft | 364 kts | 291° |
| 2026-05-08 04:37 | 41.58739 | -83.33444 | 33961 ft | 365 kts | 291° |
| 2026-05-08 04:37 | 41.60821 | -83.39604 | 33973 ft | 364 kts | 291° |
| 2026-05-08 04:38 | 41.62898 | -83.45760 | 33968 ft | 364 kts | 292° |
| 2026-05-08 04:38 | 41.64972 | -83.51920 | 33962 ft | 364 kts | 292° |
| 2026-05-08 04:39 | 41.67048 | -83.58107 | 33965 ft | 364 kts | 291° |
| 2026-05-08 04:39 | 41.69096 | -83.64216 | 33950 ft | 363 kts | 292° |
| 2026-05-08 04:40 | 41.71165 | -83.70405 | 33958 ft | 364 kts | 291° |
| 2026-05-08 04:40 | 41.73223 | -83.76566 | 33949 ft | 363 kts | 291° |
| 2026-05-08 04:41 | 41.75289 | -83.82808 | 33959 ft | 370 kts | 291° |
| 2026-05-08 04:41 | 41.77360 | -83.89104 | 33955 ft | 376 kts | 291° |
| 2026-05-08 04:42 | 41.79491 | -83.95568 | 33963 ft | 381 kts | 291° |
| 2026-05-08 04:42 | 41.81646 | -84.02100 | 33956 ft | 384 kts | 292° |
| 2026-05-08 04:43 | 41.83799 | -84.08632 | 33956 ft | 386 kts | 291° |
| 2026-05-08 04:43 | 41.85953 | -84.15144 | 33938 ft | 371 kts | 291° |
| 2026-05-08 04:44 | 41.86979 | -84.18230 | 33943 ft | 357 kts | 291° |
| 2026-05-08 04:44 | 41.87986 | -84.21271 | 33952 ft | 359 kts | 292° |
| 2026-05-08 04:44 | 41.90023 | -84.27471 | 33939 ft | 366 kts | 291° |
| 2026-05-08 04:45 | 41.92051 | -84.33665 | 33943 ft | 364 kts | 292° |
| 2026-05-08 04:45 | 41.94070 | -84.39858 | 33934 ft | 363 kts | 292° |
| 2026-05-08 04:46 | 41.96086 | -84.46059 | 33940 ft | 363 kts | 292° |
| 2026-05-08 04:46 | 41.98098 | -84.52257 | 33936 ft | 362 kts | 292° |
| 2026-05-08 04:47 | 42.00100 | -84.58441 | 33943 ft | 362 kts | 292° |
| 2026-05-08 04:47 | 42.02097 | -84.64619 | 33934 ft | 362 kts | 292° |
| 2026-05-08 04:48 | 42.04105 | -84.70848 | 33936 ft | 362 kts | 292° |
| 2026-05-08 04:48 | 42.06087 | -84.77015 | 33934 ft | 361 kts | 292° |
| 2026-05-08 04:49 | 42.08073 | -84.83212 | 33926 ft | 363 kts | 292° |
| 2026-05-08 04:49 | 42.10072 | -84.89459 | 33936 ft | 362 kts | 292° |
| 2026-05-08 04:50 | 42.12047 | -84.95637 | 33931 ft | 362 kts | 291° |
| 2026-05-08 04:50 | 42.14030 | -85.01862 | 33937 ft | 363 kts | 291° |
| 2026-05-08 04:51 | 42.16008 | -85.08079 | 33938 ft | 362 kts | 292° |
| 2026-05-08 04:51 | 42.17979 | -85.14297 | 33935 ft | 362 kts | 292° |
| 2026-05-08 04:52 | 42.19961 | -85.20566 | 33940 ft | 364 kts | 291° |
| 2026-05-08 04:52 | 42.21925 | -85.26787 | 33932 ft | 358 kts | 292° |
| 2026-05-08 04:53 | 42.23880 | -85.32998 | 33937 ft | 363 kts | 291° |
| 2026-05-08 04:53 | 42.25836 | -85.39227 | 33942 ft | 360 kts | 291° |
| 2026-05-08 04:54 | 42.27788 | -85.45458 | 33944 ft | 362 kts | 291° |
| 2026-05-08 04:54 | 42.29733 | -85.51682 | 33948 ft | 360 kts | 292° |
| 2026-05-08 04:55 | 42.31678 | -85.57912 | 33939 ft | 361 kts | 292° |
| 2026-05-08 04:55 | 42.33607 | -85.64110 | 33935 ft | 361 kts | 291° |
| 2026-05-08 04:56 | 42.35548 | -85.70364 | 33931 ft | 361 kts | 291° |
| 2026-05-08 04:56 | 42.37495 | -85.76646 | 33932 ft | 360 kts | 291° |
| 2026-05-08 04:57 | 42.39426 | -85.82896 | 33932 ft | 363 kts | 291° |
| 2026-05-08 04:57 | 42.40235 | -85.85522 | 33926 ft | 362 kts | 291° |
| 2026-05-08 04:58 | 42.40924 | -85.87758 | 33927 ft | 362 kts | 291° |
| 2026-05-08 04:58 | 42.42849 | -85.94016 | 33928 ft | 361 kts | 291° |
| 2026-05-08 04:59 | 42.44788 | -86.00328 | 33925 ft | 363 kts | 291° |
| 2026-05-08 04:59 | 42.46712 | -86.06602 | 33924 ft | 361 kts | 291° |
| 2026-05-08 05:00 | 42.48626 | -86.12873 | 33921 ft | 362 kts | 291° |
| 2026-05-08 05:00 | 42.50534 | -86.19142 | 33914 ft | 362 kts | 291° |
| 2026-05-08 05:01 | 42.52447 | -86.25430 | 33940 ft | 363 kts | 292° |
| 2026-05-08 05:01 | 42.54362 | -86.31741 | 33935 ft | 362 kts | 292° |
| 2026-05-08 05:02 | 42.56283 | -86.38084 | 33936 ft | 365 kts | 291° |
| 2026-05-08 05:02 | 42.58190 | -86.44398 | 33921 ft | 362 kts | 292° |
| 2026-05-08 05:03 | 42.60098 | -86.50738 | 33927 ft | 364 kts | 292° |
| 2026-05-08 05:03 | 42.62001 | -86.57066 | 33930 ft | 363 kts | 291° |
| 2026-05-08 05:04 | 42.63605 | -86.62421 | 33919 ft | 363 kts | 291° |
| 2026-05-08 05:04 | 42.65503 | -86.68775 | 33921 ft | 365 kts | 291° |
| 2026-05-08 05:05 | 42.67400 | -86.75131 | 33910 ft | 363 kts | 291° |
| 2026-05-08 05:05 | 42.69293 | -86.81487 | 33929 ft | 365 kts | 291° |
| 2026-05-08 05:06 | 42.71181 | -86.87846 | 33926 ft | 364 kts | 291° |
| 2026-05-08 05:06 | 42.73066 | -86.94218 | 33921 ft | 364 kts | 291° |
| 2026-05-08 05:07 | 42.74956 | -87.00613 | 33929 ft | 363 kts | 291° |
| 2026-05-08 05:07 | 42.76833 | -87.06986 | 33938 ft | 364 kts | 291° |
| 2026-05-08 05:08 | 42.78702 | -87.13354 | 33931 ft | 364 kts | 291° |
| 2026-05-08 05:08 | 42.80577 | -87.19745 | 33927 ft | 363 kts | 291° |
| 2026-05-08 05:09 | 42.82446 | -87.26134 | 33932 ft | 364 kts | 291° |
| 2026-05-08 05:09 | 42.84312 | -87.32530 | 33925 ft | 365 kts | 291° |
| 2026-05-08 05:10 | 42.87104 | -87.42135 | 33923 ft | 365 kts | 291° |
| 2026-05-08 05:11 | 42.88961 | -87.48541 | 33934 ft | 365 kts | 291° |
| 2026-05-08 05:11 | 42.90814 | -87.54948 | 33930 ft | 365 kts | 291° |
| 2026-05-08 05:12 | 42.92666 | -87.61365 | 33933 ft | 363 kts | 291° |
| 2026-05-08 05:12 | 42.94507 | -87.67774 | 33944 ft | 364 kts | 291° |
| 2026-05-08 05:13 | 42.96346 | -87.74182 | 33942 ft | 364 kts | 291° |
| 2026-05-08 05:13 | 42.98843 | -87.80193 | 33944 ft | 367 kts | 302° |
| 2026-05-08 05:14 | 43.01933 | -87.85759 | 33942 ft | 368 kts | 304° |
| 2026-05-08 05:14 | 43.05004 | -87.91343 | 33939 ft | 369 kts | 303° |
| 2026-05-08 05:15 | 43.08012 | -87.96999 | 33938 ft | 368 kts | 303° |
| 2026-05-08 05:15 | 43.10969 | -88.02673 | 33938 ft | 369 kts | 303° |
| 2026-05-08 05:16 | 43.13934 | -88.08406 | 33938 ft | 370 kts | 303° |
| 2026-05-08 05:16 | 43.16902 | -88.14169 | 33939 ft | 370 kts | 303° |
| 2026-05-08 05:17 | 43.19856 | -88.19922 | 33933 ft | 370 kts | 303° |
| 2026-05-08 05:17 | 43.22802 | -88.25670 | 33926 ft | 371 kts | 303° |
| 2026-05-08 05:18 | 43.25765 | -88.31459 | 33920 ft | 370 kts | 303° |
| 2026-05-08 05:18 | 43.28717 | -88.37238 | 33914 ft | 372 kts | 303° |
| 2026-05-08 05:19 | 43.31676 | -88.43044 | 33910 ft | 371 kts | 303° |
| 2026-05-08 05:19 | 43.34633 | -88.48858 | 33914 ft | 372 kts | 303° |
| 2026-05-08 05:20 | 43.37561 | -88.54625 | 33917 ft | 371 kts | 303° |
| 2026-05-08 05:20 | 43.40525 | -88.60471 | 33924 ft | 372 kts | 303° |
| 2026-05-08 05:21 | 43.43474 | -88.66298 | 33927 ft | 371 kts | 302° |
| 2026-05-08 05:21 | 43.46410 | -88.72115 | 33927 ft | 372 kts | 303° |
| 2026-05-08 05:22 | 43.49345 | -88.77945 | 33926 ft | 371 kts | 303° |
| 2026-05-08 05:22 | 43.52265 | -88.83753 | 33920 ft | 371 kts | 303° |
| 2026-05-08 05:23 | 43.55193 | -88.89587 | 33919 ft | 372 kts | 302° |
| 2026-05-08 05:23 | 43.58130 | -88.95453 | 33920 ft | 373 kts | 302° |
| 2026-05-08 05:24 | 43.61058 | -89.01318 | 33915 ft | 373 kts | 303° |
| 2026-05-08 05:24 | 43.63986 | -89.07183 | 33914 ft | 373 kts | 303° |
| 2026-05-08 05:25 | 43.66914 | -89.13055 | 33924 ft | 372 kts | 303° |
| 2026-05-08 05:25 | 43.69828 | -89.18922 | 33934 ft | 370 kts | 303° |
| 2026-05-08 05:26 | 43.72736 | -89.24786 | 33925 ft | 371 kts | 303° |
| 2026-05-08 05:26 | 43.75640 | -89.30659 | 33924 ft | 372 kts | 303° |
| 2026-05-08 05:27 | 43.78549 | -89.36549 | 33921 ft | 370 kts | 303° |
| 2026-05-08 05:27 | 43.81441 | -89.42416 | 33925 ft | 372 kts | 303° |
| 2026-05-08 05:28 | 43.84346 | -89.48324 | 33925 ft | 371 kts | 303° |
| 2026-05-08 05:28 | 43.87238 | -89.54218 | 33918 ft | 370 kts | 303° |
| 2026-05-08 05:29 | 43.90131 | -89.60131 | 33914 ft | 371 kts | 303° |
| 2026-05-08 05:29 | 43.93017 | -89.66031 | 33925 ft | 373 kts | 302° |
| 2026-05-08 05:30 | 43.95913 | -89.71972 | 33914 ft | 371 kts | 303° |
| 2026-05-08 05:30 | 43.98808 | -89.77919 | 33904 ft | 371 kts | 303° |
| 2026-05-08 05:31 | 44.01699 | -89.83865 | 33910 ft | 372 kts | 303° |
| 2026-05-08 05:31 | 44.04587 | -89.89816 | 33899 ft | 374 kts | 303° |
| 2026-05-08 05:32 | 44.07486 | -89.95768 | 33903 ft | 373 kts | 304° |
| 2026-05-08 05:32 | 44.10652 | -90.01472 | 33900 ft | 373 kts | 308° |
| 2026-05-08 05:33 | 44.13945 | -90.06996 | 33902 ft | 374 kts | 308° |
| 2026-05-08 05:33 | 44.17264 | -90.12590 | 33901 ft | 373 kts | 307° |
| 2026-05-08 05:34 | 44.20546 | -90.18176 | 33901 ft | 374 kts | 307° |
| 2026-05-08 05:34 | 44.23828 | -90.23796 | 33900 ft | 376 kts | 308° |
| 2026-05-08 05:35 | 44.27098 | -90.29417 | 33901 ft | 374 kts | 307° |
| 2026-05-08 05:35 | 44.30368 | -90.35050 | 33900 ft | 374 kts | 308° |
| 2026-05-08 05:36 | 44.33539 | -90.40781 | 33899 ft | 374 kts | 303° |
| 2026-05-08 05:36 | 44.36071 | -90.47104 | 33904 ft | 376 kts | 296° |
| 2026-05-08 05:37 | 44.38126 | -90.53761 | 33901 ft | 375 kts | 294° |
| 2026-05-08 05:37 | 44.40095 | -90.60513 | 33900 ft | 374 kts | 294° |
| 2026-05-08 05:38 | 44.42056 | -90.67243 | 33903 ft | 376 kts | 293° |
| 2026-05-08 05:38 | 44.44045 | -90.74014 | 33901 ft | 376 kts | 294° |
| 2026-05-08 05:39 | 44.46033 | -90.80750 | 33903 ft | 380 kts | 294° |
| 2026-05-08 05:39 | 44.48089 | -90.87723 | 33897 ft | 392 kts | 294° |
| 2026-05-08 05:40 | 44.50159 | -90.94773 | 33556 ft | 394 kts | 293° |
| 2026-05-08 05:40 | 44.51192 | -90.98304 | 33045 ft | 391 kts | 293° |
| 2026-05-08 05:40 | 44.52215 | -91.01800 | 32392 ft | 390 kts | 293° |
| 2026-05-08 05:40 | 44.53234 | -91.05292 | 31656 ft | 390 kts | 294° |
| 2026-05-08 05:41 | 44.54254 | -91.08787 | 30865 ft | 391 kts | 294° |
| 2026-05-08 05:41 | 44.55276 | -91.12296 | 30067 ft | 394 kts | 294° |
| 2026-05-08 05:41 | 44.56319 | -91.15878 | 29234 ft | 405 kts | 294° |
| 2026-05-08 05:41 | 44.57384 | -91.19540 | 28329 ft | 409 kts | 294° |
| 2026-05-08 05:42 | 44.58451 | -91.23215 | 27534 ft | 408 kts | 294° |
| 2026-05-08 05:42 | 44.59508 | -91.26868 | 27043 ft | 407 kts | 294° |
| 2026-05-08 05:42 | 44.60572 | -91.30547 | 26466 ft | 411 kts | 294° |
| 2026-05-08 05:42 | 44.61636 | -91.34232 | 25871 ft | 408 kts | 294° |
| 2026-05-08 05:43 | 44.62687 | -91.37877 | 25273 ft | 403 kts | 294° |
| 2026-05-08 05:43 | 44.63737 | -91.41522 | 24681 ft | 398 kts | 294° |
| 2026-05-08 05:43 | 44.64764 | -91.45085 | 24096 ft | 395 kts | 294° |
| 2026-05-08 05:43 | 44.65783 | -91.48625 | 23506 ft | 393 kts | 294° |
| 2026-05-08 05:44 | 44.66795 | -91.52146 | 22920 ft | 390 kts | 294° |
| 2026-05-08 05:44 | 44.67799 | -91.55639 | 22336 ft | 386 kts | 294° |
| 2026-05-08 05:44 | 44.68792 | -91.59103 | 21760 ft | 383 kts | 294° |
| 2026-05-08 05:44 | 44.69776 | -91.62538 | 21180 ft | 380 kts | 294° |
| 2026-05-08 05:45 | 44.70754 | -91.65960 | 20601 ft | 378 kts | 293° |
| 2026-05-08 05:45 | 44.71730 | -91.69374 | 20021 ft | 375 kts | 293° |
| 2026-05-08 05:45 | 44.72689 | -91.72739 | 19460 ft | 372 kts | 293° |
| 2026-05-08 05:45 | 44.73640 | -91.76077 | 18882 ft | 368 kts | 294° |
| 2026-05-08 05:46 | 44.74580 | -91.79382 | 18327 ft | 365 kts | 293° |
| 2026-05-08 05:46 | 44.75510 | -91.82663 | 17910 ft | 361 kts | 293° |
| 2026-05-08 05:46 | 44.76434 | -91.85922 | 17790 ft | 361 kts | 293° |
| 2026-05-08 05:46 | 44.77363 | -91.89219 | 17643 ft | 365 kts | 293° |
| 2026-05-08 05:47 | 44.78277 | -91.92537 | 17026 ft | 365 kts | 292° |
| 2026-05-08 05:47 | 44.79170 | -91.95837 | 16438 ft | 360 kts | 292° |
| 2026-05-08 05:47 | 44.80058 | -91.99139 | 15888 ft | 356 kts | 292° |
| 2026-05-08 05:47 | 44.80924 | -92.02364 | 15360 ft | 353 kts | 292° |
| 2026-05-08 05:48 | 44.81789 | -92.05575 | 14820 ft | 352 kts | 293° |
| 2026-05-08 05:48 | 44.82652 | -92.08775 | 14295 ft | 351 kts | 292° |
| 2026-05-08 05:48 | 44.83513 | -92.11964 | 13771 ft | 349 kts | 293° |
| 2026-05-08 05:48 | 44.84367 | -92.15128 | 13242 ft | 346 kts | 293° |
| 2026-05-08 05:49 | 44.85159 | -92.18298 | 12727 ft | 345 kts | 289° |
| 2026-05-08 05:49 | 44.85637 | -92.21585 | 12215 ft | 345 kts | 281° |
| 2026-05-08 05:49 | 44.85879 | -92.24929 | 11690 ft | 344 kts | 278° |
| 2026-05-08 05:49 | 44.86026 | -92.28252 | 11175 ft | 340 kts | 277° |
| 2026-05-08 05:50 | 44.86156 | -92.31547 | 10692 ft | 338 kts | 277° |
| 2026-05-08 05:50 | 44.86294 | -92.34816 | 10374 ft | 334 kts | 277° |
| 2026-05-08 05:50 | 44.86435 | -92.38124 | 10253 ft | 336 kts | 277° |
| 2026-05-08 05:50 | 44.86580 | -92.41398 | 10132 ft | 335 kts | 277° |
| 2026-05-08 05:51 | 44.86726 | -92.44605 | 9868 ft | 324 kts | 277° |
| 2026-05-08 05:51 | 44.86778 | -92.47745 | 9388 ft | 321 kts | 271° |
| 2026-05-08 05:51 | 44.86358 | -92.50780 | 8935 ft | 313 kts | 254° |
| 2026-05-08 05:51 | 44.85450 | -92.53471 | 8581 ft | 299 kts | 246° |
| 2026-05-08 05:52 | 44.84512 | -92.55990 | 8308 ft | 288 kts | 255° |
| 2026-05-08 05:52 | 44.84087 | -92.58773 | 8036 ft | 298 kts | 268° |
| 2026-05-08 05:52 | 44.83907 | -92.61727 | 7779 ft | 307 kts | 268° |
| 2026-05-08 05:52 | 44.83651 | -92.64664 | 7511 ft | 299 kts | 264° |
| 2026-05-08 05:53 | 44.83311 | -92.67520 | 7253 ft | 291 kts | 262° |
| 2026-05-08 05:53 | 44.82942 | -92.70267 | 6999 ft | 283 kts | 261° |
| 2026-05-08 05:53 | 44.82571 | -92.72938 | 6741 ft | 275 kts | 261° |
| 2026-05-08 05:53 | 44.82211 | -92.75542 | 6480 ft | 269 kts | 261° |
| 2026-05-08 05:54 | 44.81857 | -92.78120 | 6216 ft | 263 kts | 261° |
| 2026-05-08 05:54 | 44.81519 | -92.80599 | 6021 ft | 255 kts | 261° |
| 2026-05-08 05:54 | 44.81188 | -92.83044 | 5741 ft | 256 kts | 261° |
| 2026-05-08 05:54 | 44.80858 | -92.85477 | 5524 ft | 253 kts | 261° |
| 2026-05-08 05:55 | 44.80527 | -92.87909 | 5304 ft | 255 kts | 261° |
| 2026-05-08 05:55 | 44.80194 | -92.90352 | 5077 ft | 255 kts | 261° |
| 2026-05-08 05:55 | 44.79859 | -92.92799 | 4824 ft | 256 kts | 261° |
| 2026-05-08 05:55 | 44.79523 | -92.95252 | 4520 ft | 255 kts | 261° |
| 2026-05-08 05:56 | 44.79190 | -92.97678 | 4275 ft | 248 kts | 261° |
| 2026-05-08 05:56 | 44.78997 | -93.00023 | 4022 ft | 236 kts | 271° |
| 2026-05-08 05:56 | 44.79366 | -93.02169 | 3740 ft | 220 kts | 298° |
| 2026-05-08 05:56 | 44.80194 | -93.03825 | 3566 ft | 196 kts | 307° |
| 2026-05-08 05:57 | 44.80923 | -93.05345 | 3371 ft | 181 kts | 302° |
| 2026-05-08 05:57 | 44.81569 | -93.06882 | 3078 ft | 182 kts | 301° |
| 2026-05-08 05:57 | 44.82217 | -93.08387 | 2832 ft | 181 kts | 302° |
| 2026-05-08 05:57 | 44.82888 | -93.09907 | 2578 ft | 181 kts | 301° |
| 2026-05-08 05:58 | 44.83545 | -93.11410 | 2327 ft | 181 kts | 301° |
| 2026-05-08 05:58 | 44.84192 | -93.12891 | 2086 ft | 171 kts | 301° |
| 2026-05-08 05:58 | 44.84782 | -93.14239 | 1836 ft | 157 kts | 301° |
| 2026-05-08 05:58 | 44.85334 | -93.15492 | 1619 ft | 148 kts | 302° |
| 2026-05-08 05:59 | 44.85875 | -93.16711 | 1450 ft | 146 kts | 301° |
| 2026-05-08 05:59 | 44.86391 | -93.17942 | 1247 ft | 146 kts | 301° |
| 2026-05-08 05:59 | 44.86931 | -93.19159 | 1067 ft | 148 kts | 301° |
| 2026-05-08 05:59 | 44.87475 | -93.20403 | 852 ft | 148 kts | 301° |
| 2026-05-08 06:00 | 44.87939 | -93.21477 | 846 ft | 94 kts | 302° |
| 2026-05-08 06:00 | 44.88153 | -93.21971 | 846 ft | 26 kts | 301° |
| 2026-05-08 06:00 | 44.88160 | -93.22086 | 846 ft | 15 kts | 227° |
| 2026-05-08 06:00 | 44.88087 | -93.22192 | 846 ft | 14 kts | 227° |
| 2026-05-08 06:01 | 44.88018 | -93.22294 | 846 ft | 14 kts | 225° |
| 2026-05-08 06:01 | 44.87951 | -93.22392 | 846 ft | 13 kts | 226° |
| 2026-05-08 06:01 | 44.87880 | -93.22495 | 846 ft | 16 kts | 226° |
| 2026-05-08 06:01 | 44.87801 | -93.22607 | 846 ft | 15 kts | 225° |
| 2026-05-08 06:02 | 44.87724 | -93.22716 | 846 ft | 15 kts | 225° |
| 2026-05-08 06:02 | 44.87649 | -93.22823 | 846 ft | 15 kts | 225° |
| 2026-05-08 06:02 | 44.87574 | -93.22928 | 846 ft | 15 kts | 225° |
| 2026-05-08 06:02 | 44.87502 | -93.23026 | 846 ft | 12 kts | 210° |
| 2026-05-08 06:03 | 44.87427 | -93.23000 | 846 ft | 9 kts | 131° |
| 2026-05-08 06:03 | 44.87407 | -93.22969 | 846 ft | 0 kts | 134° |